Time;durP1;ratioP1;P1;durP2;ratioP2;P2;SDS_P1;SDS_P2;PMS_P1;PMS_P2;Temp;Humidity;BMP_temperature;BMP_pressure;BME280_temperature;BME280_humidity;BME280_pressure;Samples;Min_cycle;Max_cycle;Signal;HPM_P1;HPM_P2
2023/10/06 00:04:51;;;;;;;9.68;3.53;;;;;;;15.18;56.26;100632.12;7683569;32;40143;-79
2023/10/06 00:09:09;;;;;;;7.93;3.30;;;;;;;14.98;56.18;100633.03;7684967;32;38965;-79
2023/10/06 00:13:29;;;;;;;7.40;3.83;;;;;;;14.95;55.80;100642.66;7684775;32;37732;-79
2023/10/06 00:17:49;;;;;;;6.30;3.42;;;;;;;15.13;55.25;100634.91;7684773;32;37706;-80
2023/10/06 00:22:17;;;;;;;6.95;3.58;;;;;;;15.19;55.18;100633.75;7684824;32;39177;-79
2023/10/06 00:26:34;;;;;;;9.63;3.58;;;;;;;15.12;55.18;100630.50;7682703;32;39907;-78
2023/10/06 00:31:08;;;;;;;11.40;3.70;;;;;;;15.03;55.40;100639.31;7657871;32;38712;-79
2023/10/06 00:35:30;;;;;;;7.15;3.87;;;;;;;14.80;55.91;100638.03;7657983;32;37831;-79
2023/10/06 00:39:50;;;;;;;10.05;3.72;;;;;;;15.07;55.14;100638.75;7658050;32;39120;-79
2023/10/06 00:44:06;;;;;;;7.55;3.50;;;;;;;14.98;54.97;100633.84;7657926;32;40015;-80
2023/10/06 00:48:23;;;;;;;8.20;3.45;;;;;;;14.71;55.62;100627.91;7657825;32;38063;-79
2023/10/06 00:52:40;;;;;;;11.63;3.55;;;;;;;14.74;55.20;100627.34;7656742;32;37451;-79
2023/10/06 00:56:58;;;;;;;8.70;3.58;;;;;;;14.71;55.06;100627.91;7657751;32;39391;-80
2023/10/06 01:01:17;;;;;;;7.03;3.45;;;;;;;14.45;55.77;100636.16;7657615;32;39901;-80
2023/10/06 01:05:34;;;;;;;9.88;3.35;;;;;;;14.22;56.67;100627.41;7657705;32;37706;-79
2023/10/06 01:09:56;;;;;;;6.93;3.28;;;;;;;14.25;56.66;100626.06;7657685;32;37197;-80
2023/10/06 01:14:15;;;;;;;;;;;;;;;14.20;56.71;100626.87;7657855;32;39109;-79
2023/10/06 01:18:35;;;;;;;7.72;3.50;;;;;;;14.12;57.84;100627.41;7657561;32;40770;-79
2023/10/06 01:22:56;;;;;;;7.05;3.42;;;;;;;14.07;57.47;100635.62;7668856;32;37755;-79
2023/10/06 01:27:12;;;;;;;7.60;3.37;;;;;;;14.20;56.83;100628.78;7682757;32;37314;-80
2023/10/06 01:31:29;;;;;;;8.23;3.55;;;;;;;14.26;56.38;100631.25;7683315;32;39436;-79
2023/10/06 01:35:46;;;;;;;8.15;3.83;;;;;;;13.94;57.18;100631.53;7683049;32;40052;-79
2023/10/06 01:40:08;;;;;;;12.65;4.75;;;;;;;13.75;57.90;100642.22;7684593;32;38752;-80
2023/10/06 01:44:27;;;;;;;8.30;3.67;;;;;;;13.66;58.16;100646.56;7661760;32;37130;-79
2023/10/06 01:48:43;;;;;;;9.57;3.42;;;;;;;13.61;58.08;100654.81;7660364;32;39063;-78
2023/10/06 01:53:05;;;;;;;7.43;3.60;;;;;;;13.66;57.84;100658.38;7660059;32;40077;-78
2023/10/06 01:57:22;;;;;;;9.27;3.65;;;;;;;13.93;56.79;100654.56;7660186;32;38460;-79
2023/10/06 02:01:40;;;;;;;12.05;4.45;;;;;;;13.84;56.76;100650.72;7666632;32;37752;-79
2023/10/06 02:05:59;;;;;;;8.80;3.58;;;;;;;13.83;56.69;100655.38;7658643;32;39351;-79
2023/10/06 02:10:18;;;;;;;7.82;3.92;;;;;;;13.65;58.13;100656.72;7659648;32;40154;-79
2023/10/06 02:14:35;;;;;;;10.80;3.90;;;;;;;13.50;59.37;100668.47;7667126;32;36889;-80
2023/10/06 02:18:54;;;;;;;9.23;4.10;;;;;;;13.76;58.68;100663.03;7686070;32;37284;-79
2023/10/06 02:23:13;;;;;;;7.07;3.62;;;;;;;13.60;58.84;100662.19;7685702;32;39485;-79
2023/10/06 02:27:35;;;;;;;12.18;3.95;;;;;;;13.93;57.61;100661.97;7685972;32;40813;-79
2023/10/06 02:31:52;;;;;;;8.27;4.35;;;;;;;13.48;59.18;100662.41;7684771;32;38206;-79
2023/10/06 02:36:18;;;;;;;7.47;3.78;;;;;;;13.45;59.67;100656.66;7685668;32;37176;-80
2023/10/06 02:40:48;;;;;;;9.98;3.62;;;;;;;13.57;59.09;100648.22;7680861;32;39337;-80
2023/10/06 02:45:06;;;;;;;7.40;3.37;;;;;;;13.53;59.04;100658.88;7658533;32;40058;-78
2023/10/06 02:49:31;;;;;;;7.95;3.85;;;;;;;13.41;59.39;100667.34;7658884;32;38977;-79
2023/10/06 02:53:50;;;;;;;9.30;3.83;;;;;;;13.36;60.33;100667.31;7659361;32;37358;-79
2023/10/06 02:58:09;;;;;;;7.97;3.78;;;;;;;13.35;59.73;100668.44;7659411;32;39452;-80
2023/10/06 03:02:26;;;;;;;9.90;3.62;;;;;;;13.18;59.69;100681.44;7676661;32;40895;-79
2023/10/06 03:07:11;;;;;;;6.40;3.30;;;;;;;13.54;58.09;100676.97;7685379;32;38013;-77
2023/10/06 03:11:23;;;;;;;8.57;3.95;;;;;;;13.56;58.09;100679.44;7677415;32;37053;-79
2023/10/06 03:15:45;;;;;;;7.75;3.25;;;;;;;13.38;58.42;100687.03;7658798;32;39938;-79
2023/10/06 03:20:11;;;;;;;7.68;3.47;;;;;;;13.42;58.14;100696.38;7658890;32;40929;-80
2023/10/06 03:24:34;;;;;;;9.70;3.47;;;;;;;13.11;58.68;100688.00;7658970;32;38028;-79
2023/10/06 03:28:53;;;;;;;7.87;3.80;;;;;;;13.18;58.49;100695.13;7658954;32;37122;-79
2023/10/06 03:33:12;;;;;;;8.05;3.80;;;;;;;13.03;58.65;100688.50;7658787;32;39927;-80
2023/10/06 03:42:07;;;;;;;10.10;3.50;;;;;;;12.93;58.26;100696.69;7676987;32;38001;-79
2023/10/06 03:46:24;;;;;;;10.27;4.03;;;;;;;12.92;58.14;100692.31;7685085;32;37617;-79
2023/10/06 03:50:43;;;;;;;9.40;3.33;;;;;;;13.06;57.76;100693.47;7685029;32;39322;-78
2023/10/06 03:55:00;;;;;;;8.68;3.85;;;;;;;13.20;57.14;100691.06;7685112;32;40869;-79
2023/10/06 03:59:17;;;;;;;10.80;4.05;;;;;;;13.32;56.68;100701.81;7681811;32;38766;-79
2023/10/06 04:03:33;;;;;;;9.35;3.60;;;;;;;13.16;56.97;100709.13;7657195;32;36843;-78
2023/10/06 04:07:50;;;;;;;8.55;3.65;;;;;;;13.04;57.38;100701.13;7658418;32;39308;-79
2023/10/06 04:12:06;;;;;;;8.05;3.85;;;;;;;13.31;56.42;100716.56;7671583;32;40781;-78
2023/10/06 04:16:24;;;;;;;9.18;3.90;;;;;;;13.03;57.39;100720.56;7684625;32;38069;-79
2023/10/06 04:20:43;;;;;;;11.35;4.00;;;;;;;12.96;57.66;100718.03;7671263;32;37373;-79
2023/10/06 04:25:00;;;;;;;9.32;3.90;;;;;;;13.11;57.16;100718.13;7658261;32;39409;-79
2023/10/06 04:29:18;;;;;;;10.45;4.03;;;;;;;13.15;56.87;100719.22;7658182;32;40757;-79
2023/10/06 04:33:35;;;;;;;9.35;3.80;;;;;;;13.19;56.97;100726.91;7658126;32;36976;-79
2023/10/06 04:37:52;;;;;;;8.00;3.47;;;;;;;12.93;57.91;100715.84;7657966;32;37575;-79
2023/10/06 04:42:08;;;;;;;10.43;3.58;;;;;;;12.83;58.21;100722.09;7670107;32;39158;-79
2023/10/06 04:46:25;;;;;;;8.55;3.80;;;;;;;12.87;57.96;100722.38;7683698;32;39930;-78
2023/10/06 04:50:42;;;;;;;10.15;4.72;;;;;;;13.05;57.42;100719.19;7684327;32;38160;-79
2023/10/06 04:55:00;;;;;;;10.10;4.25;;;;;;;12.90;57.87;100728.16;7684149;32;37208;-80
2023/10/06 04:59:19;;;;;;;9.98;4.15;;;;;;;13.08;57.27;100735.06;7675865;32;40165;-79
2023/10/06 05:03:45;;;;;;;20.55;4.57;;;;;;;13.19;57.09;100746.09;7657593;32;39606;-79
2023/10/06 05:08:04;;;;;;;11.07;4.30;;;;;;;12.93;58.03;100748.66;7657415;32;38692;-79
2023/10/06 05:12:23;;;;;;;10.88;3.83;;;;;;;12.97;58.11;100749.81;7657193;32;36170;-79
2023/10/06 05:16:40;;;;;;;8.73;3.90;;;;;;;12.95;58.38;100749.22;7657538;32;38322;-77
2023/10/06 05:20:58;;;;;;;8.38;3.92;;;;;;;13.01;58.41;100761.88;7675990;32;40893;-79
2023/10/06 05:25:15;;;;;;;12.35;4.97;;;;;;;13.10;57.93;100776.69;7682023;32;38740;-77
2023/10/06 05:29:35;;;;;;;12.25;4.30;;;;;;;13.03;58.15;100781.59;7657024;32;37884;-79
2023/10/06 05:33:52;;;;;;;11.50;4.95;;;;;;;13.08;58.23;100773.41;7660918;32;39446;-84
2023/10/06 05:38:15;;;;;;;10.32;4.18;;;;;;;13.07;58.36;100782.72;7662579;32;40739;-85
2023/10/06 05:42:33;;;;;;;14.65;4.85;;;;;;;13.02;58.68;100790.91;7670081;32;38218;-83
2023/10/06 05:46:49;;;;;;;12.48;4.68;;;;;;;13.07;58.57;100792.81;7680084;32;37309;-83
2023/10/06 05:51:08;;;;;;;8.50;3.75;;;;;;;13.09;58.71;100796.13;7665406;32;39836;-84
2023/10/06 05:55:35;;;;;;;10.93;4.53;;;;;;;13.05;58.72;100795.00;7678124;32;40764;-85
2023/10/06 05:59:51;;;;;;;14.18;5.55;;;;;;;13.23;58.20;100801.94;7682823;32;38691;-84
2023/10/06 06:04:08;;;;;;;12.70;5.78;;;;;;;13.05;58.46;100809.50;7682549;32;37989;-84
2023/10/06 06:08:25;;;;;;;12.60;6.10;;;;;;;13.13;58.07;100803.56;7655831;32;40070;-80
2023/10/06 06:12:42;;;;;;;12.05;5.57;;;;;;;13.14;58.29;100821.62;7672028;32;39616;-80
2023/10/06 06:17:00;;;;;;;15.43;6.53;;;;;;;13.31;57.73;100815.16;7666427;32;37966;-80
2023/10/06 06:21:16;;;;;;;15.32;6.72;;;;;;;13.31;57.75;100820.63;7656577;32;37164;-78
2023/10/06 06:25:35;;;;;;;15.68;6.75;;;;;;;13.30;57.97;100822.56;7656835;32;39427;-83
2023/10/06 06:29:52;;;;;;;16.85;7.62;;;;;;;13.30;58.14;100828.03;7662131;32;40081;-83
2023/10/06 06:34:09;;;;;;;14.48;7.12;;;;;;;13.49;57.66;100819.41;7685074;32;37991;-84
2023/10/06 06:38:25;;;;;;;14.15;6.85;;;;;;;13.44;57.52;100836.63;7678404;32;185637;-84
2023/10/06 06:42:42;;;;;;;15.27;6.37;;;;;;;13.57;57.26;100835.31;7685244;32;40129;-84
2023/10/06 06:46:58;;;;;;;14.25;6.72;;;;;;;13.86;56.42;100846.69;7664011;32;40812;-84
2023/10/06 06:51:14;;;;;;;17.80;5.20;;;;;;;14.00;56.43;100851.69;7668588;32;37961;-85
2023/10/06 06:55:31;;;;;;;13.10;5.93;;;;;;;14.26;55.71;100849.81;7658976;32;37903;-85
2023/10/06 06:59:49;;;;;;;13.90;5.37;;;;;;;14.21;56.26;100861.63;7661978;32;40121;-86
2023/10/06 07:04:08;;;;;;;11.95;5.20;;;;;;;14.21;56.29;100867.13;7667939;32;39675;-84
2023/10/06 07:08:24;;;;;;;10.05;4.57;;;;;;;14.74;54.64;100864.19;7677252;32;37979;-85
2023/10/06 07:12:42;;;;;;;10.77;4.43;;;;;;;15.02;54.45;100860.09;7679079;32;38288;-81
2023/10/06 07:17:00;;;;;;;10.60;4.65;;;;;;;14.93;54.28;100860.91;7658903;32;39603;-77
2023/10/06 07:21:17;;;;;;;9.07;3.83;;;;;;;15.15;53.65;100864.19;7672204;32;40817;-82
2023/10/06 07:25:34;;;;;;;10.95;4.30;;;;;;;15.44;52.86;100869.09;7668519;32;38728;-81
2023/10/06 07:29:53;;;;;;;12.20;4.32;;;;;;;15.61;51.18;100866.06;7670690;32;37085;-81
2023/10/06 07:34:11;;;;;;;9.13;3.80;;;;;;;15.93;51.13;100862.09;7670470;32;40155;-81
2023/10/06 07:38:28;;;;;;;12.35;4.45;;;;;;;15.73;49.94;100861.06;7669744;32;38348;-81
2023/10/06 07:42:46;;;;;;;10.77;3.70;;;;;;;15.73;50.03;100866.56;7670051;32;38080;-86
2023/10/06 07:47:03;;;;;;;14.05;3.80;;;;;;;16.20;49.10;100866.41;7674420;32;36074;-84
2023/10/06 07:51:19;;;;;;;11.15;4.07;;;;;;;16.42;47.33;100869.56;7670659;32;39857;-84
2023/10/06 07:55:36;;;;;;;12.60;3.70;;;;;;;16.56;47.57;100877.16;7675173;32;40882;-84
2023/10/06 07:59:53;;;;;;;12.63;4.35;;;;;;;16.17;48.28;100877.97;7684850;32;38080;-77
2023/10/06 08:04:10;;;;;;;21.40;3.58;;;;;;;16.43;48.60;100882.19;7685077;32;37569;-65
2023/10/06 08:08:28;;;;;;;12.10;4.65;;;;;;;16.60;49.18;100876.31;7684803;32;40098;-65
2023/10/06 08:12:56;;;;;;;8.93;3.60;;;;;;;16.24;48.26;100883.97;7684780;32;41732;-80
2023/10/06 08:17:12;;;;;;;11.98;3.58;;;;;;;16.42;47.69;100887.97;7684728;32;38761;-83
2023/10/06 08:21:29;;;;;;;10.93;3.70;;;;;;;16.71;46.88;100890.81;7684668;32;38159;-83
2023/10/06 08:25:46;;;;;;;9.98;3.67;;;;;;;16.34;47.73;100894.94;7684728;32;39783;-84
2023/10/06 08:30:17;;;;;;;8.85;3.60;;;;;;;16.95;46.78;100892.91;7684620;32;39925;-84
2023/10/06 08:34:39;;;;;;;10.18;3.78;;;;;;;17.63;46.26;100898.31;7684322;32;38715;-84
2023/10/06 08:38:57;;;;;;;10.43;4.00;;;;;;;18.28;44.31;100897.03;7684359;32;38154;-85
2023/10/06 08:43:17;;;;;;;9.65;4.03;;;;;;;17.93;43.66;100896.34;7681304;32;39641;-84
2023/10/06 08:47:35;;;;;;;7.62;3.08;;;;;;;17.51;44.03;100899.84;7669527;32;39941;-84
2023/10/06 08:52:12;;;;;;;12.95;3.67;;;;;;;18.62;42.25;100890.47;7673473;32;38041;-85
2023/10/06 08:56:30;;;;;;;8.85;3.30;;;;;;;18.90;41.86;100877.63;7669486;32;37897;-83
2023/10/06 09:00:47;;;;;;;9.57;3.17;;;;;;;19.10;40.85;100870.13;7670935;32;38938;-84
2023/10/06 09:05:05;;;;;;;9.32;3.60;;;;;;;18.88;41.15;100884.56;7667328;32;39802;-84
2023/10/06 09:09:28;;;;;;;10.65;3.30;;;;;;;18.49;42.39;100892.03;7675305;32;35923;-83
2023/10/06 09:13:45;;;;;;;9.13;3.65;;;;;;;18.83;41.96;100892.94;7662380;32;37154;-84
2023/10/06 09:18:20;;;;;;;7.57;3.30;;;;;;;18.83;42.53;100884.66;7680365;32;39373;-84
2023/10/06 09:22:50;;;;;;;11.23;3.62;;;;;;;19.55;40.94;100872.34;7681399;32;40035;-84
2023/10/06 09:27:19;;;;;;;7.45;3.10;;;;;;;19.95;39.97;100875.44;7660481;32;37972;-85
2023/10/06 09:31:38;;;;;;;7.22;3.22;;;;;;;19.65;41.11;100877.69;7662519;32;37145;-82
2023/10/06 09:36:07;;;;;;;7.78;3.30;;;;;;;19.66;41.10;100866.31;7679000;32;39424;-82
2023/10/06 09:40:23;;;;;;;5.85;2.85;;;;;;;20.42;39.87;100852.00;7678541;32;39680;-86
2023/10/06 09:44:41;;;;;;;11.77;3.08;;;;;;;20.94;38.77;100853.56;7676076;32;37826;-84
2023/10/06 09:48:59;;;;;;;6.95;2.85;;;;;;;21.07;38.89;100843.53;7681470;32;36778;-82
2023/10/06 09:53:17;;;;;;;7.35;3.00;;;;;;;20.39;39.60;100846.25;7681849;32;38932;-84
2023/10/06 09:57:35;;;;;;;7.12;2.95;;;;;;;21.35;39.09;100838.59;7678067;32;39145;-83
2023/10/06 10:01:52;;;;;;;6.80;2.92;;;;;;;20.67;38.26;100841.47;7684827;32;37664;-83
2023/10/06 10:06:09;;;;;;;7.50;2.95;;;;;;;20.81;37.91;100831.13;7672592;32;38059;-83
2023/10/06 10:10:27;;;;;;;12.85;3.67;;;;;;;21.46;36.87;100819.75;7686656;32;39354;-83
2023/10/06 10:14:55;;;;;;;7.62;2.50;;;;;;;21.52;36.75;100824.03;7684889;32;40627;-83
2023/10/06 10:19:13;;;;;;;7.03;2.62;;;;;;;22.16;35.80;100808.81;7686153;32;37913;-84
2023/10/06 10:23:30;;;;;;;10.63;2.67;;;;;;;22.38;35.13;100808.69;7667787;32;36001;-80
2023/10/06 10:28:17;;;;;;;6.62;2.40;;;;;;;23.02;34.15;100798.78;7648042;32;40180;-85
2023/10/06 10:32:33;;;;;;;8.63;2.50;;;;;;;22.77;34.72;100797.72;7659798;32;39660;-85
2023/10/06 10:37:14;;;;;;;9.60;2.55;;;;;;;23.41;33.34;100788.53;7659354;32;39000;-85
2023/10/06 10:41:35;;;;;;;5.40;2.15;;;;;;;23.48;33.09;100772.13;7654129;32;38045;-82
2023/10/06 10:45:57;;;;;;;6.05;2.10;;;;;;;23.38;33.37;100772.50;7662110;32;40577;-83
2023/10/06 10:50:17;;;;;;;6.50;2.28;;;;;;;22.94;32.63;100775.44;7670981;32;39605;-82
2023/10/06 10:54:35;;;;;;;5.12;1.90;;;;;;;23.32;32.85;100768.28;7680282;32;38037;-82
2023/10/06 10:58:53;;;;;;;7.53;1.70;;;;;;;23.16;33.02;100756.91;7679323;32;36195;-84
2023/10/06 11:03:10;;;;;;;8.40;1.95;;;;;;;22.39;33.17;100753.97;7671173;32;39573;-85
2023/10/06 11:07:27;;;;;;;2.97;1.65;;;;;;;22.78;33.23;100750.13;7663757;32;40039;-82
2023/10/06 11:11:43;;;;;;;4.37;1.40;;;;;;;22.30;33.14;100756.72;7665736;32;38580;-82
2023/10/06 11:16:04;;;;;;;2.97;0.98;;;;;;;22.85;32.53;100742.09;7666548;32;37715;-84
2023/10/06 11:20:27;;;;;;;6.20;1.10;;;;;;;23.60;29.42;100746.38;7668299;32;39042;-82
2023/10/06 11:24:44;;;;;;;1.30;0.68;;;;;;;23.24;29.55;100745.72;7658695;32;40537;-81
2023/10/06 11:29:00;;;;;;;1.67;0.95;;;;;;;23.73;29.25;100744.47;7669838;32;37908;-81
2023/10/06 11:33:19;;;;;;;3.05;1.00;;;;;;;23.62;30.00;100735.72;7671243;32;37347;-83
2023/10/06 11:37:36;;;;;;;3.50;1.05;;;;;;;24.26;29.13;100734.59;7677191;32;39354;-83
2023/10/06 11:41:55;;;;;;;2.65;1.20;;;;;;;25.38;26.83;100727.31;7674119;32;40100;-83
2023/10/06 11:46:15;;;;;;;3.30;1.17;;;;;;;25.08;27.76;100719.97;7666525;32;38597;-82
2023/10/06 11:50:32;;;;;;;5.40;1.65;;;;;;;25.64;27.70;100710.19;7676171;32;36758;-81
2023/10/06 11:54:49;;;;;;;6.05;1.55;;;;;;;26.33;26.65;100699.84;7671122;32;40211;-82
2023/10/06 11:59:17;;;;;;;3.37;1.52;;;;;;;26.43;26.29;100681.75;7676078;32;39739;-83
2023/10/06 12:03:42;;;;;;;3.47;1.48;;;;;;;25.18;29.77;100684.37;7670916;32;38101;-82
2023/10/06 12:08:08;;;;;;;6.45;1.95;;;;;;;26.18;27.60;100673.50;7658496;32;37930;-84
2023/10/06 12:12:25;;;;;;;7.50;1.65;;;;;;;26.23;27.32;100666.81;7658401;32;40175;-82
2023/10/06 12:16:44;;;;;;;5.87;1.70;;;;;;;25.99;27.66;100662.16;7666714;32;40751;-82
2023/10/06 12:21:02;;;;;;;6.22;1.85;;;;;;;25.99;27.12;100665.78;7670615;32;38820;-80
2023/10/06 12:25:25;;;;;;;3.92;1.83;;;;;;;27.22;25.69;100650.19;7669251;32;37052;-82
2023/10/06 12:29:41;;;;;;;;;;;;;;;27.40;24.42;100644.22;7670882;32;39119;-82
2023/10/06 12:34:03;;;;;;;3.03;1.40;;;;;;;26.35;25.71;100640.78;7666017;32;40923;-82
2023/10/06 12:38:20;;;;;;;5.00;1.40;;;;;;;26.34;27.07;100651.16;7669853;32;38063;-83
2023/10/06 12:42:38;;;;;;;5.25;1.83;;;;;;;26.51;25.33;100644.44;7671030;32;37877;-83
2023/10/06 12:46:55;;;;;;;3.15;1.17;;;;;;;26.16;25.64;100656.25;7669610;32;39403;-82
2023/10/06 12:51:12;;;;;;;4.30;1.37;;;;;;;25.95;26.51;100644.50;7669991;32;39783;-83
2023/10/06 12:55:29;;;;;;;3.55;1.40;;;;;;;25.20;27.27;100637.41;7672880;32;38041;-83
2023/10/06 12:59:45;;;;;;;5.57;1.85;;;;;;;25.78;27.91;100640.78;7684197;32;36949;-83
2023/10/06 13:04:02;;;;;;;4.35;1.42;;;;;;;26.38;26.17;100640.87;7684021;32;40101;-83
2023/10/06 13:08:21;;;;;;;5.62;1.33;;;;;;;26.01;26.22;100643.06;7683704;32;39923;-83
2023/10/06 13:12:41;;;;;;;7.03;1.40;;;;;;;25.53;26.81;100650.44;7683793;32;38982;-83
2023/10/06 13:16:58;;;;;;;4.10;1.58;;;;;;;25.76;27.42;100656.28;7683835;32;37630;-83
2023/10/06 13:21:14;;;;;;;5.82;1.60;;;;;;;25.21;27.77;100655.78;7682579;32;40057;-83
2023/10/06 13:25:31;;;;;;;4.07;1.50;;;;;;;24.74;29.33;100655.06;7683566;32;40727;-83
2023/10/06 13:29:48;;;;;;;5.10;1.30;;;;;;;24.30;29.33;100651.13;7683303;32;37896;-83
2023/10/06 13:34:04;;;;;;;4.03;1.40;;;;;;;24.67;28.80;100638.13;7684122;32;37807;-83
2023/10/06 13:38:21;;;;;;;5.28;1.65;;;;;;;24.69;28.74;100634.97;7686274;32;39460;-83
2023/10/06 13:42:45;;;;;;;3.75;1.60;;;;;;;24.58;29.33;100622.66;7686420;32;39650;-83
2023/10/06 13:47:05;;;;;;;3.20;1.62;;;;;;;24.94;28.46;100621.88;7686474;32;37710;-83
2023/10/06 13:51:21;;;;;;;4.32;1.27;;;;;;;25.62;27.50;100623.16;7686383;32;36927;-83
2023/10/06 13:55:38;;;;;;;2.95;1.33;;;;;;;25.71;27.27;100623.81;7686775;32;40109;-83
2023/10/06 13:59:55;;;;;;;3.55;1.40;;;;;;;26.22;26.43;100617.69;7686336;32;39799;-82
2023/10/06 14:04:12;;;;;;;6.57;1.42;;;;;;;26.50;25.35;100602.84;7686171;32;38798;-82
2023/10/06 14:08:29;;;;;;;3.15;1.45;;;;;;;26.97;26.47;100597.25;7686077;32;37976;-82
2023/10/06 14:12:50;;;;;;;2.90;1.42;;;;;;;26.69;26.48;100588.16;7686245;32;39225;-83
2023/10/06 14:17:16;;;;;;;3.45;1.27;;;;;;;25.97;27.72;100591.88;7686112;32;39963;-69
2023/10/06 14:21:34;;;;;;;4.80;1.48;;;;;;;25.66;27.76;100585.81;7684839;32;38022;-66
2023/10/06 14:25:52;;;;;;;6.12;1.23;;;;;;;25.60;28.64;100592.00;7685942;32;38006;-68
2023/10/06 14:30:09;;;;;;;2.80;1.45;;;;;;;25.97;27.77;100580.69;7686057;32;39610;-67
2023/10/06 14:34:56;;;;;;;6.55;1.60;;;;;;;26.45;27.32;100570.38;7685829;32;40024;-67
2023/10/06 14:48:19;;;;;;;2.95;1.60;;;;;;;25.70;28.01;100571.12;7684613;32;39452;-85
2023/10/06 14:52:35;;;;;;;3.67;1.42;;;;;;;25.62;27.52;100582.09;7676562;32;40247;-84
2023/10/06 14:56:53;;;;;;;3.30;1.37;;;;;;;24.63;28.66;100570.28;7671330;32;38524;-84
2023/10/06 15:01:12;;;;;;;6.40;1.52;;;;;;;24.52;29.50;100580.22;7671605;32;36450;-84
2023/10/06 15:05:38;;;;;;;4.05;1.60;;;;;;;24.54;29.49;100584.34;7671235;32;39461;-85
2023/10/06 15:09:55;;;;;;;4.28;1.48;;;;;;;24.98;29.63;100563.41;7671805;32;39929;-85
2023/10/06 15:14:13;;;;;;;4.75;1.40;;;;;;;25.03;28.93;100561.19;7671182;32;37719;-83
2023/10/06 15:18:30;;;;;;;6.37;1.50;;;;;;;24.63;29.77;100570.28;7675506;32;36977;-84
2023/10/06 15:22:50;;;;;;;3.30;1.40;;;;;;;24.89;29.29;100569.13;7671599;32;40135;-83
2023/10/06 15:27:07;;;;;;;3.90;1.62;;;;;;;24.60;29.80;100570.19;7670861;32;42261;-83
2023/10/06 15:31:26;;;;;;;5.95;1.67;;;;;;;23.97;30.49;100565.63;7669591;32;38122;-83
2023/10/06 15:35:43;;;;;;;4.75;1.67;;;;;;;23.26;32.29;100578.50;7655909;32;37901;-85
2023/10/06 15:40:01;;;;;;;3.37;1.27;;;;;;;22.92;33.24;100582.28;7656603;32;39129;-85
2023/10/06 15:44:20;;;;;;;5.65;1.90;;;;;;;22.71;34.30;100583.06;7668582;32;39646;-84
2023/10/06 15:48:38;;;;;;;3.05;1.67;;;;;;;22.80;33.93;100591.34;7674724;32;38439;-84
2023/10/06 15:52:55;;;;;;;5.65;1.50;;;;;;;22.20;35.62;100598.78;7670240;32;37192;-84
2023/10/06 15:57:11;;;;;;;6.00;1.70;;;;;;;22.29;36.83;100599.59;7674356;32;39080;-84
2023/10/06 16:01:28;;;;;;;6.80;1.80;;;;;;;22.52;34.92;100600.16;7684120;32;40482;-84
2023/10/06 16:05:45;;;;;;;6.47;1.83;;;;;;;22.44;35.59;100604.59;7684334;32;38043;-84
2023/10/06 16:10:02;;;;;;;6.30;1.98;;;;;;;22.34;36.24;100607.72;7683841;32;37153;-84
2023/10/06 16:14:19;;;;;;;5.53;1.70;;;;;;;22.12;36.65;100615.09;7684352;32;40156;-84
2023/10/06 16:18:36;;;;;;;7.62;2.12;;;;;;;22.17;36.63;100618.88;7683750;32;39652;-84
2023/10/06 16:22:57;;;;;;;8.70;2.12;;;;;;;21.95;36.96;100626.22;7683935;32;38789;-85
2023/10/06 16:27:13;;;;;;;8.85;2.25;;;;;;;21.73;37.73;100639.16;7684154;32;36678;-85
2023/10/06 16:31:31;;;;;;;4.87;1.95;;;;;;;21.47;38.06;100635.53;7683568;32;40265;-85
2023/10/06 16:35:49;;;;;;;32.95;19.95;;;;;;;21.45;37.51;100630.28;7683787;32;40007;-84
2023/10/06 16:40:09;;;;;;;12.32;3.15;;;;;;;21.35;37.59;100628.66;7683218;32;38859;-84
2023/10/06 16:44:25;;;;;;;7.43;2.97;;;;;;;21.14;38.37;100619.31;7683996;32;36886;-84
2023/10/06 16:48:42;;;;;;;14.13;4.37;;;;;;;21.01;38.19;100621.09;7683778;32;40191;-85
2023/10/06 16:52:59;;;;;;;13.55;5.65;;;;;;;20.93;38.34;100619.91;7683267;32;39905;-85
2023/10/06 16:57:16;;;;;;;11.07;4.60;;;;;;;20.79;38.86;100628.34;7666045;32;38855;-84
2023/10/06 17:01:34;;;;;;;9.18;4.53;;;;;;;20.41;40.05;100628.00;7675442;32;37143;-84
2023/10/06 17:05:51;;;;;;;10.32;4.20;;;;;;;20.61;39.09;100618.28;7683498;32;40231;-84
2023/10/06 17:10:09;;;;;;;12.70;4.30;;;;;;;20.47;38.86;100609.28;7682454;32;40106;-83
2023/10/06 17:14:26;;;;;;;10.82;4.05;;;;;;;20.00;39.90;100607.69;7678584;32;37812;-85
2023/10/06 17:18:43;;;;;;;7.65;2.95;;;;;;;19.88;40.30;100618.53;7665797;32;36963;-83
2023/10/06 17:23:00;;;;;;;9.85;3.80;;;;;;;19.91;40.40;100611.56;7670375;32;39800;-82
2023/10/06 17:27:16;;;;;;;12.65;3.25;;;;;;;19.69;41.25;100602.09;7672733;32;39975;-84
2023/10/06 17:31:34;;;;;;;6.97;3.15;;;;;;;19.65;41.59;100601.09;7678258;32;38782;-83
2023/10/06 17:35:51;;;;;;;9.02;3.60;;;;;;;19.52;42.14;100595.28;7682710;32;37882;-83
2023/10/06 17:40:10;;;;;;;9.50;3.80;;;;;;;19.37;42.30;100595.66;7682402;32;39863;-81
2023/10/06 17:44:27;;;;;;;7.35;3.10;;;;;;;19.66;41.62;100602.69;7658794;32;40103;-80
2023/10/06 17:48:47;;;;;;;4.62;2.83;;;;;;;19.36;42.06;100618.88;7676341;32;37665;-81
2023/10/06 17:53:05;;;;;;;6.78;2.75;;;;;;;19.20;42.33;100614.84;7672665;32;37189;-83
2023/10/06 17:57:22;;;;;;;8.32;3.33;;;;;;;19.06;42.85;100621.19;7674442;32;39353;-83
2023/10/06 18:01:39;;;;;;;7.43;3.35;;;;;;;18.70;43.99;100601.75;7656329;32;39964;-82
2023/10/06 18:05:55;;;;;;;10.93;4.32;;;;;;;18.69;44.05;100603.66;7656227;32;37687;-83
2023/10/06 18:10:13;;;;;;;9.07;3.33;;;;;;;18.71;43.99;100595.91;7657680;32;37234;-84
2023/10/06 18:14:31;;;;;;;7.32;2.75;;;;;;;18.39;44.57;100594.84;7662046;32;39156;-82
2023/10/06 18:18:47;;;;;;;5.47;2.72;;;;;;;18.43;44.12;100605.28;7664016;32;40026;-81
2023/10/06 18:23:05;;;;;;;8.80;2.47;;;;;;;18.32;44.31;100599.16;7659319;32;37623;-83
2023/10/06 18:27:22;;;;;;;3.58;2.03;;;;;;;18.36;44.10;100600.97;7677489;32;36664;-83
2023/10/06 18:31:39;;;;;;;5.95;1.90;;;;;;;18.28;44.49;100600.88;7666656;32;39300;-81
2023/10/06 18:35:55;;;;;;;4.30;2.00;;;;;;;17.92;45.35;100596.81;7665527;32;39661;-81
2023/10/06 18:40:13;;;;;;;7.90;2.03;;;;;;;18.02;45.03;100591.12;7684440;32;38390;-81
2023/10/06 18:44:30;;;;;;;7.45;2.28;;;;;;;17.92;45.36;100593.19;7683816;32;37920;-80
2023/10/06 18:48:47;;;;;;;5.07;2.17;;;;;;;17.68;45.85;100591.38;7680647;32;39122;-81
2023/10/06 18:53:04;;;;;;;4.35;1.87;;;;;;;17.46;46.44;100591.97;7685679;32;40597;-81
2023/10/06 18:57:20;;;;;;;4.80;2.22;;;;;;;17.50;46.28;100587.50;7685677;32;38612;-80
2023/10/06 19:01:38;;;;;;;7.70;2.10;;;;;;;17.33;46.67;100600.97;7684720;32;37176;-81
2023/10/06 19:06:05;;;;;;;5.25;2.15;;;;;;;17.40;46.45;100590.41;7684263;32;38984;-80
2023/10/06 19:10:21;;;;;;;4.40;1.83;;;;;;;17.33;46.64;100595.47;7683444;32;39642;-83
2023/10/06 19:14:39;;;;;;;28.17;12.95;;;;;;;16.99;47.55;100596.47;7685304;32;38973;-82
2023/10/06 19:18:58;;;;;;;31.33;15.85;;;;;;;17.07;47.29;100591.16;7685223;32;36939;-84
2023/10/06 19:23:14;;;;;;;8.63;3.87;;;;;;;17.07;47.23;100593.06;7676237;32;39377;-83
2023/10/06 19:27:31;;;;;;;5.18;2.92;;;;;;;16.98;47.32;100587.41;7673340;32;40864;-81
2023/10/06 19:31:48;;;;;;;5.90;2.40;;;;;;;16.92;47.51;100596.00;7667899;32;38804;-81
2023/10/06 19:36:06;;;;;;;6.47;2.17;;;;;;;16.81;47.79;100589.78;7667971;32;37835;-81
2023/10/06 19:40:22;;;;;;;5.87;2.90;;;;;;;16.76;47.89;100587.91;7668238;32;39353;-83
2023/10/06 19:44:43;;;;;;;5.78;2.72;;;;;;;16.51;48.69;100589.03;7666891;32;39689;-81
2023/10/06 19:49:00;;;;;;;5.95;2.70;;;;;;;16.59;48.57;100598.56;7662980;32;37764;-80
2023/10/06 19:53:16;;;;;;;6.32;3.15;;;;;;;16.28;49.38;100598.91;7668597;32;38039;-81
2023/10/06 19:57:34;;;;;;;4.68;2.12;;;;;;;15.87;50.38;100604.78;7671364;32;39047;-82
2023/10/06 20:01:50;;;;;;;11.45;2.50;;;;;;;15.80;50.56;100604.25;7680848;32;40831;-81
2023/10/06 20:06:07;;;;;;;6.50;3.15;;;;;;;15.90;50.13;100593.19;7667287;32;38855;-81
2023/10/06 20:10:30;;;;;;;12.80;3.85;;;;;;;15.94;49.93;100594.28;7668583;32;37893;-81
2023/10/06 20:14:46;;;;;;;8.17;2.60;;;;;;;15.94;50.04;100588.78;7665135;32;39306;-81
2023/10/06 20:19:02;;;;;;;6.37;2.30;;;;;;;15.82;50.29;100596.56;7668116;32;40727;-82